Time;durP1;ratioP1;P1;durP2;ratioP2;P2;SDS_P1;SDS_P2;PMS_P1;PMS_P2;Temp;Humidity;BMP_temperature;BMP_pressure;BME280_temperature;BME280_humidity;BME280_pressure;Samples;Min_cycle;Max_cycle;Signal;HPM_P1;HPM_P2
2023/05/31 00:00:21;;;;;;;3.65;0.60;;;;;;;16.25;67.95;102105.31;5077192;28;20031;-69
2023/05/31 00:02:46;;;;;;;2.60;0.80;;;;;;;16.26;68.17;102096.97;5077564;28;20079;-68
2023/05/31 00:05:12;;;;;;;6.32;0.68;;;;;;;16.26;67.96;102083.41;5078033;28;20036;-69
2023/05/31 00:07:37;;;;;;;2.55;0.77;;;;;;;16.26;67.83;102080.69;5058964;28;20033;-69
2023/05/31 00:10:03;;;;;;;2.60;0.70;;;;;;;16.25;67.83;102079.00;5077758;28;20090;-69
2023/05/31 00:12:28;;;;;;;1.95;0.60;;;;;;;16.23;68.14;102080.25;5079187;28;20032;-69
2023/05/31 00:14:54;;;;;;;2.42;0.70;;;;;;;16.19;68.45;102068.94;5044251;28;20052;-69
2023/05/31 00:17:19;;;;;;;4.90;0.88;;;;;;;16.13;68.80;102045.34;5060057;28;20051;-69
2023/05/31 00:19:44;;;;;;;6.22;0.98;;;;;;;16.25;68.82;102061.88;5059710;28;20036;-69
2023/05/31 00:22:10;;;;;;;2.85;0.60;;;;;;;16.11;69.70;102042.00;5060842;28;20040;-68
2023/05/31 00:24:36;;;;;;;3.85;0.70;;;;;;;16.22;70.14;102065.81;5077942;28;20024;-69
2023/05/31 00:27:01;;;;;;;7.10;1.00;;;;;;;16.24;69.76;102058.31;5078055;28;20028;-68
2023/05/31 00:29:28;;;;;;;3.78;1.00;;;;;;;16.25;70.39;102062.69;5077453;28;20047;-68
2023/05/31 00:31:54;;;;;;;5.70;0.80;;;;;;;16.17;70.72;102042.00;5058823;28;20032;-68
2023/05/31 00:34:19;;;;;;;4.63;1.00;;;;;;;16.14;71.58;102052.44;5077176;28;20487;-68
2023/05/31 00:36:45;;;;;;;5.68;0.85;;;;;;;16.17;71.41;102061.00;5077969;28;20081;-69
2023/05/31 00:39:10;;;;;;;4.45;0.98;;;;;;;16.19;71.21;102063.50;5077490;28;20041;-69
2023/05/31 00:41:36;;;;;;;3.15;0.63;;;;;;;16.19;71.80;102058.94;5058737;28;20041;-69
2023/05/31 00:44:01;;;;;;;6.25;0.90;;;;;;;16.20;72.04;102065.22;5058920;28;20036;-69
2023/05/31 00:46:28;;;;;;;8.70;1.10;;;;;;;16.23;71.74;102069.41;5076794;28;20092;-69
2023/05/31 00:48:55;;;;;;;4.82;0.88;;;;;;;16.28;71.71;102078.59;5075176;28;20023;-68
2023/05/31 00:51:21;;;;;;;6.45;0.82;;;;;;;16.32;71.69;102073.56;5042585;28;20058;-68
2023/05/31 00:53:47;;;;;;;6.38;1.05;;;;;;;16.32;71.74;102068.97;5062254;28;20360;-69
2023/05/31 00:56:14;;;;;;;9.77;1.33;;;;;;;16.34;71.42;102058.75;5079706;28;20051;-69
2023/05/31 00:58:41;;;;;;;5.97;0.80;;;;;;;16.32;71.81;102055.38;5060137;28;20055;-69
2023/05/31 01:01:08;;;;;;;4.40;1.00;;;;;;;16.39;71.60;102056.25;5059191;28;20056;-69
2023/05/31 01:03:34;;;;;;;4.45;1.20;;;;;;;16.37;72.36;102052.06;5059554;28;20040;-69
2023/05/31 01:06:00;;;;;;;5.72;0.95;;;;;;;16.26;72.56;102042.66;5062612;28;20025;-69
2023/05/31 01:08:26;;;;;;;6.55;0.90;;;;;;;16.35;72.33;102051.44;5060243;28;20025;-69
2023/05/31 01:10:56;;;;;;;7.30;1.40;;;;;;;16.35;73.10;102054.97;5077393;28;20021;-69
2023/05/31 01:13:32;;;;;;;6.65;1.40;;;;;;;16.30;72.93;102048.50;5077800;28;20442;-68
2023/05/31 01:16:26;;;;;;;5.93;1.10;;;;;;;16.42;72.93;102047.69;5077988;28;20101;-69
2023/05/31 01:19:02;;;;;;;5.90;1.52;;;;;;;16.47;72.56;102044.34;5078017;28;20111;-70
2023/05/31 01:21:44;;;;;;;5.25;1.00;;;;;;;16.42;72.82;102041.41;5078130;28;20111;-69
2023/05/31 01:24:22;;;;;;;8.02;1.30;;;;;;;16.43;73.01;102041.22;5058919;28;20020;-69
2023/05/31 01:26:50;;;;;;;5.43;1.15;;;;;;;16.36;73.28;102045.81;5059270;28;20032;-69
2023/05/31 01:29:21;;;;;;;6.40;1.30;;;;;;;16.28;73.06;102013.41;5058593;28;20029;-69
2023/05/31 01:31:48;;;;;;;3.83;1.10;;;;;;;16.35;73.79;102029.69;5058542;28;20426;-69
2023/05/31 01:34:14;;;;;;;6.78;1.60;;;;;;;16.39;73.63;102025.50;5077645;28;20047;-69
2023/05/31 01:36:39;;;;;;;5.22;1.40;;;;;;;16.34;73.94;102028.88;5076857;28;20048;-69
2023/05/31 01:39:06;;;;;;;8.25;2.00;;;;;;;16.35;73.75;102029.69;5059349;28;20544;-68
2023/05/31 01:41:36;;;;;;;7.13;1.65;;;;;;;16.40;73.40;102010.91;5039649;28;20062;-69
2023/05/31 01:44:03;;;;;;;9.98;2.30;;;;;;;16.31;74.22;102007.56;5077122;28;20027;-69
2023/05/31 01:46:28;;;;;;;7.68;1.65;;;;;;;16.27;73.90;102010.91;5076861;28;20040;-69
2023/05/31 01:48:55;;;;;;;7.90;1.80;;;;;;;16.33;73.87;102015.50;5042057;28;20095;-69
2023/05/31 01:51:21;;;;;;;10.38;2.08;;;;;;;16.24;74.35;102005.88;5059177;28;20228;-69
2023/05/31 01:53:47;;;;;;;7.97;1.88;;;;;;;16.23;74.67;102005.06;5057821;28;20029;-69
2023/05/31 01:56:13;;;;;;;11.05;2.40;;;;;;;16.29;74.55;102009.66;5077600;28;20368;-69
2023/05/31 01:58:48;;;;;;;13.45;3.28;;;;;;;16.21;74.89;101996.25;5065482;28;20034;-69
2023/05/31 02:01:16;;;;;;;12.30;2.53;;;;;;;16.24;75.19;102005.88;5081175;28;20098;-69
2023/05/31 02:03:42;;;;;;;10.82;2.40;;;;;;;16.13;75.76;101997.31;5080986;28;20076;-69
2023/05/31 02:06:08;;;;;;;9.50;2.40;;;;;;;16.21;76.04;101997.09;5062522;28;20020;-69
2023/05/31 02:08:33;;;;;;;12.63;3.08;;;;;;;16.05;75.90;101962.19;5065322;28;20024;-69
2023/05/31 02:10:59;;;;;;;9.52;2.67;;;;;;;16.10;76.71;101980.59;5072954;28;20098;-69
2023/05/31 02:13:28;;;;;;;14.75;3.50;;;;;;;16.06;76.35;101960.31;5045413;28;20055;-69
2023/05/31 02:15:55;;;;;;;12.15;2.50;;;;;;;16.17;76.55;101987.69;5063276;28;20039;-69
2023/05/31 02:18:21;;;;;;;14.50;2.90;;;;;;;16.01;77.35;101969.09;5063185;28;20024;-69
2023/05/31 02:20:47;;;;;;;13.88;2.72;;;;;;;16.05;77.20;101981.19;5046602;28;20090;-69
2023/05/31 02:23:13;;;;;;;12.30;3.15;;;;;;;16.17;77.16;101995.00;5080300;28;20031;-68
2023/05/31 02:25:38;;;;;;;17.75;3.33;;;;;;;16.16;77.73;101998.78;5062202;28;20064;-69
2023/05/31 02:28:04;;;;;;;11.48;2.95;;;;;;;16.10;77.87;101986.84;5079692;28;20028;-69
2023/05/31 02:30:30;;;;;;;12.85;2.85;;;;;;;16.05;78.08;101969.50;5061802;28;20039;-69
2023/05/31 02:32:56;;;;;;;13.65;2.65;;;;;;;16.14;78.52;101976.41;5061734;28;20032;-69
2023/05/31 02:35:22;;;;;;;17.40;3.30;;;;;;;16.11;78.69;101996.66;5062353;28;20036;-69
2023/05/31 02:37:48;;;;;;;11.98;2.80;;;;;;;16.07;79.17;101997.28;5079784;28;20036;-69
2023/05/31 02:40:13;;;;;;;10.68;2.60;;;;;;;16.09;79.33;101997.91;5079857;28;20539;-69
2023/05/31 02:42:40;;;;;;;14.68;3.00;;;;;;;15.97;79.39;101960.53;5061803;28;20025;-69
2023/05/31 02:45:07;;;;;;;14.13;3.15;;;;;;;16.29;79.41;101992.50;5062029;28;20020;-68
2023/05/31 02:47:33;;;;;;;14.75;3.17;;;;;;;16.43;78.87;102007.78;5079760;28;20038;-69
2023/05/31 02:49:59;;;;;;;17.15;3.22;;;;;;;16.60;78.20;102006.31;5066232;28;20025;-69
2023/05/31 02:52:26;;;;;;;13.90;3.10;;;;;;;16.80;77.58;102010.94;5027411;28;20112;-69
2023/05/31 02:54:52;;;;;;;11.75;3.08;;;;;;;16.83;77.32;101999.63;5079153;28;20033;-71
2023/05/31 02:57:18;;;;;;;15.93;3.20;;;;;;;16.71;77.77;101990.41;5060336;28;20471;-69
2023/05/31 02:59:44;;;;;;;17.48;3.17;;;;;;;16.89;77.79;101999.63;5044431;28;20104;-68
2023/05/31 03:02:10;;;;;;;16.10;3.58;;;;;;;16.96;77.48;102015.91;5060633;28;20078;-72
2023/05/31 03:04:36;;;;;;;20.25;3.65;;;;;;;16.90;77.86;102016.75;5078274;28;20028;-69
2023/05/31 03:07:02;;;;;;;17.77;3.47;;;;;;;17.11;77.35;101993.91;5060676;28;20395;-68
2023/05/31 03:09:28;;;;;;;15.32;3.30;;;;;;;17.57;76.06;102003.78;5045208;28;20420;-69
2023/05/31 03:11:53;;;;;;;21.05;3.97;;;;;;;17.93;74.25;102005.94;5063508;28;20471;-69
2023/05/31 03:14:19;;;;;;;12.27;3.65;;;;;;;18.32;73.18;101990.38;5080722;28;20024;-69
2023/05/31 03:16:45;;;;;;;14.88;3.70;;;;;;;18.60;71.69;101983.63;5061831;28;20069;-68
2023/05/31 03:19:12;;;;;;;22.60;4.65;;;;;;;18.82;70.63;101979.47;5079388;28;20505;-69
2023/05/31 03:21:38;;;;;;;17.05;3.70;;;;;;;19.07;69.67;101976.66;5079514;28;20023;-69
2023/05/31 03:24:04;;;;;;;17.92;4.07;;;;;;;19.64;68.14;101984.63;5078544;28;20024;-68
2023/05/31 03:26:29;;;;;;;16.02;3.88;;;;;;;19.86;66.85;101969.38;5060004;28;20032;-68
2023/05/31 03:28:55;;;;;;;15.30;3.47;;;;;;;20.03;66.24;101971.44;5058150;28;20033;-69
2023/05/31 03:31:20;;;;;;;17.98;3.55;;;;;;;20.29;65.24;101962.81;5058490;28;20511;-69
2023/05/31 03:33:46;;;;;;;19.30;3.70;;;;;;;20.45;64.39;101969.50;5076572;28;20039;-69
2023/05/31 03:36:11;;;;;;;18.33;3.80;;;;;;;20.62;63.26;101973.22;5064494;28;20036;-69
2023/05/31 03:38:37;;;;;;;21.10;3.92;;;;;;;20.57;63.26;101966.81;5065516;28;20119;-69
2023/05/31 03:41:02;;;;;;;18.55;4.25;;;;;;;20.86;62.42;101959.53;5058540;28;20048;-69
2023/05/31 03:43:28;;;;;;;16.55;3.75;;;;;;;20.99;61.73;101952.97;5042096;28;20544;-69
2023/05/31 03:45:53;;;;;;;16.65;3.80;;;;;;;20.97;61.51;101938.72;5060206;28;20088;-69
2023/05/31 03:48:18;;;;;;;18.25;3.85;;;;;;;20.75;61.82;101928.38;5078426;28;20028;-69
2023/05/31 03:50:44;;;;;;;20.08;4.72;;;;;;;21.24;60.77;101939.81;5077838;28;20036;-69
2023/05/31 03:53:10;;;;;;;16.98;3.75;;;;;;;21.69;59.40;101936.34;5059997;28;20044;-69
2023/05/31 03:55:36;;;;;;;19.65;4.47;;;;;;;21.92;58.25;101929.91;5077580;28;20024;-69
2023/05/31 03:58:02;;;;;;;18.02;4.05;;;;;;;21.95;57.78;101937.63;5060446;28;20028;-69
2023/05/31 04:00:28;;;;;;;17.73;4.00;;;;;;;22.20;57.08;101941.91;5060320;28;20037;-69
2023/05/31 04:02:53;;;;;;;18.63;4.10;;;;;;;22.73;55.92;101927.63;5060005;28;20392;-69
2023/05/31 04:05:19;;;;;;;17.02;4.32;;;;;;;22.82;54.95;101911.56;5061093;28;20040;-69
2023/05/31 04:07:45;;;;;;;17.70;3.90;;;;;;;22.90;54.53;101929.50;5059613;28;20086;-68
2023/05/31 04:10:10;;;;;;;20.00;4.05;;;;;;;22.88;54.56;101934.38;5079216;28;20040;-68
2023/05/31 04:12:36;;;;;;;20.27;4.15;;;;;;;23.08;53.51;101928.38;5078503;28;20046;-69
2023/05/31 04:15:02;;;;;;;18.40;5.15;;;;;;;22.95;53.78;101932.34;5061370;28;20036;-67
2023/05/31 04:17:27;;;;;;;19.80;4.65;;;;;;;22.85;53.76;101932.19;5079885;28;20031;-69
2023/05/31 04:19:52;;;;;;;17.65;4.35;;;;;;;23.21;53.12;101936.22;5060376;28;20510;-70
2023/05/31 04:22:18;;;;;;;15.77;4.18;;;;;;;23.04;53.68;101933.53;5078211;28;20020;-68
2023/05/31 04:24:43;;;;;;;29.88;5.25;;;;;;;23.18;53.16;101925.78;5043587;28;20052;-70
2023/05/31 04:27:09;;;;;;;21.13;4.60;;;;;;;23.13;53.51;101920.19;5083101;28;20040;-70
2023/05/31 04:29:34;;;;;;;19.50;4.28;;;;;;;22.82;53.37;101935.44;5079126;28;20032;-69
2023/05/31 04:31:59;;;;;;;22.30;4.75;;;;;;;22.48;54.11;101938.22;5059521;28;20491;-69
2023/05/31 04:34:26;;;;;;;23.17;4.80;;;;;;;22.86;53.56;101937.41;5056861;28;20020;-70
2023/05/31 04:36:52;;;;;;;20.73;4.50;;;;;;;22.65;53.64;101933.56;5041452;28;20107;-70
2023/05/31 04:39:21;;;;;;;22.13;5.25;;;;;;;22.94;53.37;101934.22;5059310;28;20055;-70
2023/05/31 04:41:47;;;;;;;23.98;4.88;;;;;;;22.78;53.69;101926.03;5060790;28;20031;-70
2023/05/31 04:44:12;;;;;;;21.85;5.28;;;;;;;22.97;53.13;101933.72;5042033;28;20383;-69
2023/05/31 04:46:40;;;;;;;26.40;5.40;;;;;;;22.91;53.29;101931.13;5059478;28;20513;-70
2023/05/31 04:49:07;;;;;;;21.45;5.05;;;;;;;22.42;54.49;101933.75;5077058;28;20486;-69
2023/05/31 04:51:32;;;;;;;25.10;5.63;;;;;;;22.30;54.92;101931.09;5077395;28;20260;-70
2023/05/31 04:53:58;;;;;;;19.80;5.10;;;;;;;22.63;54.38;101907.44;5059403;28;20107;-70
2023/05/31 04:56:24;;;;;;;25.30;5.60;;;;;;;22.86;54.00;101923.69;5077671;28;20056;-70
2023/05/31 04:58:50;;;;;;;18.98;4.75;;;;;;;22.79;53.63;101923.03;5059999;28;20120;-70
2023/05/31 05:01:15;;;;;;;24.27;5.10;;;;;;;22.83;53.85;101934.34;5043558;28;20091;-70
2023/05/31 05:03:41;;;;;;;23.85;5.38;;;;;;;22.42;55.14;101931.03;5077891;28;20403;-68
2023/05/31 05:06:15;;;;;;;23.17;5.20;;;;;;;23.04;54.37;101940.94;5060052;28;20036;-70
2023/05/31 05:08:47;;;;;;;21.08;5.32;;;;;;;23.21;53.47;101936.22;5058284;28;20514;-69
2023/05/31 05:11:13;;;;;;;18.70;5.50;;;;;;;22.86;53.73;101911.88;5067844;28;20033;-69
2023/05/31 05:13:38;;;;;;;17.75;5.07;;;;;;;22.39;55.53;101939.75;5078848;28;20047;-69
2023/05/31 05:16:04;;;;;;;18.48;5.35;;;;;;;21.91;56.94;101939.19;5088470;28;20275;-69
2023/05/31 05:18:30;;;;;;;27.73;5.90;;;;;;;21.81;57.42;101933.53;5068509;28;20032;-68
2023/05/31 05:20:59;;;;;;;21.90;5.15;;;;;;;21.91;57.31;101944.66;5058271;28;20395;-70
2023/05/31 05:23:25;;;;;;;26.27;6.50;;;;;;;21.69;57.76;101939.09;5041405;28;20029;-68
2023/05/31 05:25:51;;;;;;;19.27;4.97;;;;;;;21.92;57.20;101929.91;5057968;28;20252;-69
2023/05/31 05:28:16;;;;;;;25.73;5.40;;;;;;;21.47;58.49;101938.94;5076071;28;20032;-69
2023/05/31 05:30:44;;;;;;;23.38;5.75;;;;;;;21.76;58.52;101930.72;5043081;28;20032;-69
2023/05/31 05:33:10;;;;;;;21.20;5.47;;;;;;;21.66;58.60;101933.28;5077647;28;20028;-69
2023/05/31 05:35:36;;;;;;;23.65;6.18;;;;;;;21.32;59.12;101924.91;5063001;28;20039;-68
2023/05/31 05:38:01;;;;;;;22.77;5.78;;;;;;;21.43;59.44;101937.78;5044381;28;20119;-69
2023/05/31 05:40:26;;;;;;;23.13;6.03;;;;;;;21.35;59.23;101935.41;5080612;28;20035;-69
2023/05/31 05:42:53;;;;;;;24.67;5.60;;;;;;;21.27;60.08;101938.50;5062522;28;20059;-70
2023/05/31 05:45:19;;;;;;;20.55;5.88;;;;;;;21.26;59.72;101934.94;5062837;28;20078;-69
2023/05/31 05:47:45;;;;;;;24.35;5.72;;;;;;;20.82;60.92;101915.41;5087263;28;20025;-69
2023/05/31 05:50:11;;;;;;;27.30;6.15;;;;;;;20.68;61.61;101940.53;5067058;28;20032;-69
2023/05/31 05:52:38;;;;;;;29.98;6.65;;;;;;;20.28;62.80;101931.09;5081928;28;20039;-69
2023/05/31 05:55:04;;;;;;;22.55;5.68;;;;;;;20.53;63.66;101925.44;5063351;28;20028;-68
2023/05/31 05:57:30;;;;;;;29.60;5.75;;;;;;;20.91;62.65;101929.56;5063758;28;20024;-68
2023/05/31 05:59:56;;;;;;;22.13;5.68;;;;;;;21.07;61.55;101903.34;5080521;28;20028;-69
2023/05/31 06:02:22;;;;;;;27.42;6.07;;;;;;;21.45;60.82;101924.66;5080847;28;20036;-69
2023/05/31 06:04:47;;;;;;;25.48;5.70;;;;;;;21.28;60.65;101921.81;5061738;28;20032;-70
2023/05/31 06:07:13;;;;;;;26.15;5.70;;;;;;;21.28;60.53;101921.00;5078132;28;20055;-69
2023/05/31 06:09:38;;;;;;;38.17;6.57;;;;;;;21.01;61.16;101940.72;5061346;28;20028;-69
2023/05/31 06:12:04;;;;;;;25.85;6.10;;;;;;;21.23;60.98;101935.44;5080881;28;20032;-68
2023/05/31 06:14:30;;;;;;;25.10;6.05;;;;;;;21.25;60.77;101930.53;5062945;28;20445;-68
2023/05/31 06:16:55;;;;;;;22.13;5.32;;;;;;;21.06;61.49;101926.31;5058337;28;20483;-68
2023/05/31 06:19:21;;;;;;;23.73;5.95;;;;;;;21.16;60.92;101922.94;5060803;28;20086;-68
2023/05/31 06:21:47;;;;;;;25.33;6.28;;;;;;;21.09;60.85;101918.47;5078834;28;20476;-69
2023/05/31 06:24:12;;;;;;;23.17;6.15;;;;;;;20.60;62.32;101917.94;5061105;28;20028;-68
2023/05/31 06:26:38;;;;;;;26.77;6.20;;;;;;;20.60;63.06;101917.94;5078879;28;20048;-68
2023/05/31 06:29:04;;;;;;;27.35;5.80;;;;;;;20.63;63.26;101909.25;5060971;28;20752;-68
2023/05/31 06:31:31;;;;;;;28.38;6.55;;;;;;;20.88;62.51;101916.34;5079830;28;20052;-69
2023/05/31 06:33:56;;;;;;;32.88;6.68;;;;;;;20.50;62.52;101867.63;5081322;28;20025;-68
2023/05/31 06:36:22;;;;;;;24.25;5.95;;;;;;;21.00;62.43;101917.16;5063163;28;20073;-68
2023/05/31 06:38:47;;;;;;;26.02;5.95;;;;;;;20.95;62.54;101908.84;5063252;28;20033;-69
2023/05/31 06:41:12;;;;;;;33.20;6.82;;;;;;;20.78;62.79;101914.22;5079126;28;20035;-68
2023/05/31 06:43:38;;;;;;;30.73;6.15;;;;;;;20.86;62.80;101915.75;5079908;28;20040;-69
2023/05/31 06:46:07;;;;;;;26.38;6.15;;;;;;;20.79;63.29;101913.13;5045342;28;20070;-69
2023/05/31 06:48:32;;;;;;;23.05;5.55;;;;;;;20.95;62.83;101922.50;5047658;28;20501;-68
2023/05/31 06:50:58;;;;;;;26.02;5.40;;;;;;;20.85;63.01;101925.88;5080160;28;20037;-69
2023/05/31 06:53:23;;;;;;;27.90;6.10;;;;;;;20.91;63.15;101918.59;5080095;28;20032;-69
2023/05/31 06:55:49;;;;;;;23.67;5.35;;;;;;;20.98;62.74;101913.81;5045287;28;20032;-68
2023/05/31 06:58:16;;;;;;;20.15;5.00;;;;;;;21.03;62.72;101915.84;5080295;28;20062;-69
2023/05/31 07:00:42;;;;;;;23.42;5.80;;;;;;;21.26;61.95;101921.25;5062078;28;20391;-68
2023/05/31 07:03:07;;;;;;;30.48;6.38;;;;;;;20.82;63.24;101914.56;5080861;28;20056;-68
2023/05/31 07:05:32;;;;;;;28.25;6.32;;;;;;;20.53;63.84;101910.91;5061040;28;20429;-69
2023/05/31 07:07:58;;;;;;;22.50;5.90;;;;;;;20.52;64.58;101907.34;5062275;28;20036;-68
2023/05/31 07:10:23;;;;;;;20.52;4.88;;;;;;;20.69;64.05;101906.63;5060448;28;20032;-68
2023/05/31 07:12:50;;;;;;;19.83;5.50;;;;;;;20.73;63.91;101903.19;5060231;28;20035;-70
2023/05/31 07:15:16;;;;;;;22.33;5.22;;;;;;;20.78;63.75;101894.25;5082903;28;20086;-71
2023/05/31 07:17:41;;;;;;;20.77;4.88;;;;;;;20.61;63.73;101885.94;5066597;28;20036;-68
2023/05/31 07:20:08;;;;;;;20.67;4.90;;;;;;;20.63;63.76;101903.78;5045041;28;20138;-68
2023/05/31 07:22:34;;;;;;;26.55;5.65;;;;;;;20.68;64.27;101896.75;5059662;28;20029;-68
2023/05/31 07:24:59;;;;;;;25.10;5.63;;;;;;;20.76;64.15;101896.38;5061614;28;20040;-68
2023/05/31 07:27:25;;;;;;;21.70;5.32;;;;;;;20.68;63.66;101872.16;5061603;28;20040;-68
2023/05/31 07:29:50;;;;;;;19.65;5.07;;;;;;;20.75;64.62;101895.56;5061140;28;20173;-68
2023/05/31 07:32:16;;;;;;;24.42;5.25;;;;;;;20.62;65.18;101882.13;5078604;28;20161;-68
2023/05/31 07:34:42;;;;;;;22.50;4.93;;;;;;;20.76;65.37;101889.03;5078726;28;20028;-68
2023/05/31 07:37:07;;;;;;;25.35;5.00;;;;;;;20.71;65.63;101882.63;5061897;28;20025;-68
2023/05/31 07:39:33;;;;;;;20.23;5.07;;;;;;;20.44;66.13;101872.16;5044522;28;20107;-68
2023/05/31 07:41:58;;;;;;;15.95;4.43;;;;;;;20.36;66.66;101872.50;5043383;28;20444;-68
2023/05/31 07:44:24;;;;;;;17.80;4.63;;;;;;;20.28;66.83;101870.97;5061201;28;20498;-68
2023/05/31 07:46:50;;;;;;;15.73;4.10;;;;;;;20.13;67.28;101874.19;5028535;28;20033;-68
2023/05/31 07:49:16;;;;;;;17.25;4.25;;;;;;;20.19;67.51;101867.75;5080063;28;20032;-69
2023/05/31 07:51:41;;;;;;;19.13;4.78;;;;;;;20.25;67.77;101870.59;5044917;28;20056;-68
2023/05/31 07:54:07;;;;;;;13.75;4.05;;;;;;;20.21;68.11;101863.97;5079331;28;20103;-68
2023/05/31 07:56:32;;;;;;;16.75;4.65;;;;;;;20.21;67.32;101869.44;5063778;28;20032;-69
2023/05/31 07:58:58;;;;;;;21.58;5.00;;;;;;;20.04;68.59;101870.13;5079234;28;20071;-69
2023/05/31 08:01:23;;;;;;;18.38;4.43;;;;;;;20.06;68.37;101851.59;5061611;28;20107;-68
2023/05/31 08:03:50;;;;;;;18.60;4.35;;;;;;;20.18;67.42;101857.06;5061042;28;20029;-68
2023/05/31 08:06:16;;;;;;;16.20;4.40;;;;;;;20.31;67.20;101858.72;5063966;28;20391;-68
2023/05/31 08:08:42;;;;;;;17.80;4.65;;;;;;;20.22;67.23;101855.50;5079951;28;20040;-70
2023/05/31 08:11:08;;;;;;;14.85;4.53;;;;;;;19.93;68.66;101824.50;5079961;28;20033;-69
2023/05/31 08:13:33;;;;;;;19.42;5.03;;;;;;;20.04;69.68;101848.28;5079434;28;20078;-68
2023/05/31 08:15:59;;;;;;;17.45;3.88;;;;;;;20.23;70.04;101837.22;5079625;28;20020;-68
2023/05/31 08:18:24;;;;;;;13.57;4.50;;;;;;;20.46;69.23;101822.69;5046066;28;20032;-68
2023/05/31 08:20:50;;;;;;;17.02;4.35;;;;;;;20.60;68.07;101814.03;5061276;28;20029;-68
2023/05/31 08:23:20;;;;;;;15.85;4.43;;;;;;;20.53;68.31;101835.22;5076904;28;20035;-68
2023/05/31 08:25:46;;;;;;;16.52;4.00;;;;;;;20.26;69.58;101823.06;5058367;28;20024;-69
2023/05/31 08:28:11;;;;;;;14.95;4.25;;;;;;;20.16;70.43;101835.47;5043689;28;20037;-68
2023/05/31 08:30:37;;;;;;;13.85;3.67;;;;;;;20.18;70.69;101835.19;5079715;28;20029;-69
2023/05/31 08:33:02;;;;;;;14.27;3.97;;;;;;;20.24;70.61;101826.06;5063130;28;20479;-68
2023/05/31 08:35:28;;;;;;;12.93;3.53;;;;;;;20.40;70.14;101819.84;5061459;28;20044;-68
2023/05/31 08:37:54;;;;;;;14.65;3.40;;;;;;;20.34;69.26;101825.44;5044301;28;20451;-68
2023/05/31 08:40:20;;;;;;;9.32;3.25;;;;;;;20.54;67.76;101819.63;5077990;28;20025;-68
2023/05/31 08:42:59;;;;;;;14.02;3.60;;;;;;;20.63;66.52;101801.78;5058698;28;20372;-68
2023/05/31 08:45:28;;;;;;;10.05;3.08;;;;;;;20.98;65.39;101822.69;5083884;28;20032;-69
2023/05/31 08:48:17;;;;;;;8.07;2.92;;;;;;;20.85;64.63;101815.59;5078757;28;20035;-68
2023/05/31 08:50:43;;;;;;;10.40;3.30;;;;;;;21.05;64.11;101799.59;5078430;28;20021;-69
2023/05/31 08:53:10;;;;;;;8.25;2.70;;;;;;;21.19;62.46;101816.56;5061950;28;20475;-68
2023/05/31 08:55:36;;;;;;;7.68;2.53;;;;;;;20.97;61.78;101810.09;5080729;28;20028;-71
2023/05/31 08:58:02;;;;;;;6.35;2.30;;;;;;;20.61;60.67;101810.22;5065658;28;20032;-72
2023/05/31 09:00:28;;;;;;;5.10;2.03;;;;;;;20.34;62.75;101817.25;5060439;28;20097;-68
2023/05/31 09:02:54;;;;;;;8.25;2.40;;;;;;;20.53;62.16;101812.47;5078134;28;20507;-69
2023/05/31 09:05:19;;;;;;;5.93;2.20;;;;;;;20.20;61.28;101803.00;5060430;28;20036;-68
2023/05/31 09:07:47;;;;;;;6.15;2.65;;;;;;;20.17;62.19;101787.91;5044289;28;20025;-68
2023/05/31 09:10:14;;;;;;;5.32;2.20;;;;;;;20.22;63.92;101809.06;5045631;28;20021;-68
2023/05/31 09:12:40;;;;;;;5.22;2.50;;;;;;;20.32;63.24;101802.97;5064335;28;20020;-68
2023/05/31 09:15:07;;;;;;;7.07;2.50;;;;;;;20.26;62.38;101804.75;5064661;28;20054;-69
2023/05/31 09:17:32;;;;;;;5.95;2.50;;;;;;;20.44;62.52;101803.81;5083302;28;20029;-68
2023/05/31 09:20:00;;;;;;;6.10;2.20;;;;;;;20.53;62.24;101809.75;5065318;28;20040;-68
2023/05/31 09:22:26;;;;;;;6.65;2.80;;;;;;;20.34;61.21;101814.53;5082734;28;20033;-69
2023/05/31 09:24:59;;;;;;;6.70;2.33;;;;;;;19.73;63.17;101785.78;5081524;28;20037;-69
2023/05/31 09:27:33;;;;;;;6.13;2.35;;;;;;;19.72;63.94;101795.88;5059149;28;20048;-68
2023/05/31 09:30:05;;;;;;;5.67;2.13;;;;;;;19.52;63.76;101808.97;5081172;28;20039;-68
2023/05/31 09:32:30;;;;;;;5.30;2.25;;;;;;;19.36;63.64;101803.13;5080050;28;20265;-68
2023/05/31 09:35:09;;;;;;;6.40;2.25;;;;;;;19.53;63.92;101808.75;5081841;28;20029;-68
2023/05/31 09:37:42;;;;;;;6.82;2.50;;;;;;;19.40;65.86;101798.03;5079983;28;20020;-68
2023/05/31 09:40:08;;;;;;;10.02;2.30;;;;;;;19.29;65.29;101796.13;5061181;28;20055;-68
2023/05/31 09:42:33;;;;;;;4.20;2.10;;;;;;;19.14;66.38;101794.66;5081450;28;20025;-68
2023/05/31 09:44:59;;;;;;;8.00;2.30;;;;;;;19.46;66.10;101813.47;5046789;28;20029;-68
2023/05/31 09:47:25;;;;;;;5.18;2.28;;;;;;;19.64;64.88;101804.41;5061783;28;20036;-68
2023/05/31 09:49:53;;;;;;;4.55;2.20;;;;;;;19.56;65.75;101812.91;5049707;28;20094;-69
2023/05/31 09:52:26;;;;;;;5.20;1.90;;;;;;;19.80;64.82;101803.72;5046050;28;20035;-68
2023/05/31 09:54:51;;;;;;;7.35;2.08;;;;;;;19.35;65.62;101778.81;5058741;28;20027;-68
2023/05/31 09:57:40;;;;;;;5.90;2.03;;;;;;;19.38;64.15;101803.72;5062665;28;20024;-68
2023/05/31 10:00:14;;;;;;;5.65;2.05;;;;;;;19.18;66.10;101812.22;5081726;28;20025;-68
2023/05/31 10:02:42;;;;;;;5.30;1.90;;;;;;;19.41;66.22;101805.16;5064573;28;20040;-68
2023/05/31 10:05:08;;;;;;;5.93;2.05;;;;;;;19.22;66.87;101791.59;5064137;28;20032;-68
2023/05/31 10:07:36;;;;;;;6.07;2.08;;;;;;;19.31;66.33;101804.91;5046836;28;20029;-68
2023/05/31 10:10:02;;;;;;;8.20;2.30;;;;;;;19.28;66.85;101802.66;5063380;28;20032;-68
2023/05/31 10:12:31;;;;;;;5.30;2.10;;;;;;;19.29;66.86;101791.47;5063363;28;20479;-69
2023/05/31 10:15:01;;;;;;;5.82;2.00;;;;;;;19.25;66.96;101796.56;5082261;28;20028;-68
2023/05/31 10:17:34;;;;;;;6.88;2.00;;;;;;;19.19;67.88;101802.13;5047664;28;20059;-68
2023/05/31 10:20:06;;;;;;;5.47;1.95;;;;;;;18.94;67.64;101788.63;5063964;28;20067;-68
2023/05/31 10:22:34;;;;;;;5.25;1.90;;;;;;;19.09;68.14;101808.13;5082197;28;20024;-68
2023/05/31 10:25:09;;;;;;;6.07;2.15;;;;;;;19.28;69.20;101805.38;5081665;28;20103;-68
2023/05/31 10:27:41;;;;;;;5.78;1.90;;;;;;;19.44;67.48;101800.06;5082214;28;20078;-69
2023/05/31 10:30:09;;;;;;;7.93;2.20;;;;;;;19.08;67.60;101806.50;5045357;28;20047;-68
2023/05/31 10:32:45;;;;;;;8.23;2.20;;;;;;;19.09;68.95;101799.97;5062292;28;20024;-68
2023/05/31 10:35:11;;;;;;;5.05;2.00;;;;;;;19.19;69.74;101797.50;5080273;28;20395;-68
2023/05/31 10:37:41;;;;;;;7.22;2.40;;;;;;;19.12;70.09;101793.22;5080871;28;20024;-68
2023/05/31 10:40:15;;;;;;;4.10;1.48;;;;;;;19.22;69.41;101788.03;5078436;28;20036;-68
2023/05/31 10:42:56;;;;;;;5.68;2.00;;;;;;;19.28;69.07;101789.00;5060541;28;20099;-68
2023/05/31 10:45:46;;;;;;;5.15;1.80;;;;;;;19.06;68.95;101780.50;5079040;28;20039;-68
2023/05/31 10:48:15;;;;;;;4.20;1.67;;;;;;;19.10;69.65;101785.25;5064793;28;20085;-68
2023/05/31 10:51:00;;;;;;;5.03;1.85;;;;;;;18.92;68.43;101785.31;5077482;28;20033;-68
2023/05/31 10:53:46;;;;;;;4.95;1.70;;;;;;;18.94;68.54;101780.44;5078279;28;20460;-68
2023/05/31 10:56:13;;;;;;;4.82;1.75;;;;;;;18.76;67.14;101771.25;5059891;28;20047;-68
2023/05/31 10:58:42;;;;;;;4.25;1.60;;;;;;;18.99;68.01;101784.16;5080113;28;20078;-68
2023/05/31 11:01:13;;;;;;;4.85;1.77;;;;;;;19.18;66.46;101768.56;5062398;28;20056;-68
2023/05/31 11:03:49;;;;;;;5.15;1.65;;;;;;;19.15;67.14;101776.38;5062140;28;20426;-68
2023/05/31 11:06:19;;;;;;;3.30;1.30;;;;;;;19.08;68.34;101765.56;5080508;28;20020;-68
2023/05/31 11:09:11;;;;;;;2.45;1.20;;;;;;;19.24;67.31;101756.72;5062150;28;20030;-68
2023/05/31 11:11:39;;;;;;;6.93;1.70;;;;;;;19.15;66.67;101782.66;5080846;28;20147;-69
2023/05/31 11:14:29;;;;;;;5.70;1.67;;;;;;;19.20;68.35;101762.84;5063551;28;20055;-68
2023/05/31 11:16:59;;;;;;;2.95;1.40;;;;;;;19.22;67.89;101767.03;5062984;28;20064;-68
2023/05/31 11:19:34;;;;;;;5.40;1.77;;;;;;;19.29;68.26;101774.28;5063455;28;20025;-68